Time;durP1;ratioP1;P1;durP2;ratioP2;P2;SDS_P1;SDS_P2;PMS_P1;PMS_P2;Temp;Humidity;BMP_temperature;BMP_pressure;BME280_temperature;BME280_humidity;BME280_pressure;Samples;Min_cycle;Max_cycle;Signal;HPM_P1;HPM_P2
2021/03/05 00:00:50;;;;;;;14.37;9.67;;;;;;;;;;5027431;28;20205;-47
2021/03/05 00:03:15;;;;;;;15.57;9.73;;;;;;;;;;5030386;28;20190;-48
2021/03/05 00:05:42;;;;;;;15.17;8.87;;;;;;;;;;5023002;28;20237;-48
2021/03/05 00:08:09;;;;;;;15.57;10.17;;;;;;;;;;5025347;28;20210;-49
2021/03/05 00:10:37;;;;;;;12.90;9.07;;;;;;;;;;5045242;28;20263;-48
2021/03/05 00:13:03;;;;;;;13.07;9.53;;;;;;;;;;5024474;28;20205;-48
2021/03/05 00:15:31;;;;;;;13.27;8.67;;;;;;;;;;5045145;28;20207;-49
2021/03/05 00:17:56;;;;;;;21.43;9.70;;;;;;;;;;5042850;28;20270;-49
2021/03/05 00:20:25;;;;;;;16.00;9.50;;;;;;;;;;5043505;28;20762;-47
2021/03/05 00:22:51;;;;;;;13.13;8.80;;;;;;;;;;5043277;28;20556;-48
2021/03/05 00:25:17;;;;;;;13.83;9.00;;;;;;;;;;5029716;28;20182;-48
2021/03/05 00:27:42;;;;;;;13.43;8.97;;;;;;;;;;5042461;28;20569;-49
2021/03/05 00:30:09;;;;;;;15.23;9.00;;;;;;;;;;5026781;28;20240;-47
2021/03/05 00:32:35;;;;;;;14.13;9.33;;;;;;;;;;5041762;28;20199;-48
2021/03/05 00:35:03;;;;;;;11.33;8.30;;;;;;;;;;5046185;28;20696;-49
2021/03/05 00:37:29;;;;;;;12.57;8.17;;;;;;;;;;5040774;28;20595;-51
2021/03/05 00:39:54;;;;;;;14.87;10.13;;;;;;;;;;5042998;28;20340;-47
2021/03/05 00:42:19;;;;;;;17.77;10.27;;;;;;;;;;5025324;28;20430;-48
2021/03/05 00:44:44;;;;;;;15.07;9.63;;;;;;;;;;5045351;28;20192;-49
2021/03/05 00:47:10;;;;;;;15.10;9.17;;;;;;;;;;5040983;28;20265;-48
2021/03/05 00:49:35;;;;;;;11.23;8.17;;;;;;;;;;5042710;28;20237;-49
2021/03/05 00:52:00;;;;;;;17.77;9.47;;;;;;;;;;5036605;28;20182;-47
2021/03/05 00:54:26;;;;;;;14.27;9.13;;;;;;;;;;5046699;28;20681;-50
2021/03/05 00:56:51;;;;;;;12.87;8.73;;;;;;;;;;5042253;28;20243;-48
2021/03/05 00:59:16;;;;;;;14.90;8.77;;;;;;;;;;5044791;28;20201;-48
2021/03/05 01:01:42;;;;;;;13.73;9.57;;;;;;;;;;5043677;28;20190;-48
2021/03/05 01:04:08;;;;;;;13.03;8.97;;;;;;;;;;5047233;28;20670;-47
2021/03/05 01:06:33;;;;;;;13.40;8.70;;;;;;;;;;5025976;28;20204;-48
2021/03/05 01:08:58;;;;;;;11.43;8.90;;;;;;;;;;5024814;28;20214;-49
2021/03/05 01:11:24;;;;;;;15.67;9.93;;;;;;;;;;5040692;28;20288;-49
2021/03/05 01:13:49;;;;;;;12.80;8.97;;;;;;;;;;5038853;28;20685;-49
2021/03/05 01:16:15;;;;;;;14.00;9.50;;;;;;;;;;5042490;28;20202;-48
2021/03/05 01:18:40;;;;;;;13.17;9.43;;;;;;;;;;5044527;28;20235;-48
2021/03/05 01:21:06;;;;;;;15.40;10.30;;;;;;;;;;5042151;28;20726;-49
2021/03/05 01:23:32;;;;;;;13.20;9.67;;;;;;;;;;5047933;28;20186;-49
2021/03/05 01:25:57;;;;;;;16.43;9.53;;;;;;;;;;5026121;28;20255;-48
2021/03/05 01:28:24;;;;;;;13.70;10.00;;;;;;;;;;5037733;28;20284;-47
2021/03/05 01:30:49;;;;;;;12.70;8.70;;;;;;;;;;5041591;28;20405;-48
2021/03/05 01:33:14;;;;;;;12.80;8.47;;;;;;;;;;5046830;28;20299;-49
2021/03/05 01:35:40;;;;;;;11.37;8.53;;;;;;;;;;5042899;28;20191;-48
2021/03/05 01:38:05;;;;;;;11.90;8.73;;;;;;;;;;5027398;28;20190;-48
2021/03/05 01:40:36;;;;;;;14.63;9.73;;;;;;;;;;5046362;28;20210;-48
2021/03/05 01:43:08;;;;;;;13.33;8.90;;;;;;;;;;5045944;28;20214;-48
2021/03/05 01:45:33;;;;;;;12.50;8.63;;;;;;;;;;5047547;28;20200;-49
2021/03/05 01:48:03;;;;;;;10.50;7.50;;;;;;;;;;5042170;28;20202;-47
2021/03/05 01:50:33;;;;;;;13.20;7.67;;;;;;;;;;5046002;28;20435;-47
2021/03/05 01:53:02;;;;;;;13.77;8.40;;;;;;;;;;5044151;28;20174;-47
2021/03/05 01:55:28;;;;;;;11.47;8.33;;;;;;;;;;5049750;28;20228;-50
2021/03/05 01:57:54;;;;;;;13.07;8.07;;;;;;;;;;5046947;28;20218;-53
2021/03/05 02:00:42;;;;;;;13.60;7.60;;;;;;;;;;5045924;28;20209;-51
2021/03/05 02:03:08;;;;;;;12.57;9.27;;;;;;;;;;5028125;28;20293;-51
2021/03/05 02:05:38;;;;;;;11.97;8.47;;;;;;;;;;5046531;28;20272;-49
2021/03/05 02:08:04;;;;;;;12.87;9.13;;;;;;;;;;5047913;28;20595;-47
2021/03/05 02:10:30;;;;;;;14.23;9.37;;;;;;;;;;5044174;28;20217;-51
2021/03/05 02:12:55;;;;;;;13.93;9.53;;;;;;;;;;5027315;28;20305;-47
2021/03/05 02:15:21;;;;;;;10.93;8.30;;;;;;;;;;5026642;28;20182;-49
2021/03/05 02:17:58;;;;;;;12.40;8.90;;;;;;;;;;5047565;28;20190;-49
2021/03/05 02:20:34;;;;;;;13.07;9.03;;;;;;;;;;5045031;28;20231;-49
2021/03/05 02:23:18;;;;;;;11.87;8.73;;;;;;;;;;5038156;28;20197;-48
2021/03/05 02:26:14;;;;;;;10.93;8.60;;;;;;;;;;5019825;28;20194;-48
2021/03/05 02:28:45;;;;;;;11.50;8.10;;;;;;;;;;5040144;28;20206;-49
2021/03/05 02:31:41;;;;;;;11.97;8.50;;;;;;;;;;5050429;28;20209;-50
2021/03/05 02:34:19;;;;;;;11.30;8.53;;;;;;;;;;5014681;28;20278;-50
2021/03/05 02:36:50;;;;;;;10.40;8.00;;;;;;;;;;5029668;28;20430;-52
2021/03/05 02:39:43;;;;;;;11.80;8.10;;;;;;;;;;5027874;28;20284;-48
2021/03/05 02:42:14;;;;;;;10.97;7.90;;;;;;;;;;5024339;28;20194;-49
2021/03/05 02:44:50;;;;;;;12.67;8.70;;;;;;;;;;5045397;28;20210;-48
2021/03/05 02:47:18;;;;;;;11.83;7.70;;;;;;;;;;5048064;28;20192;-48
2021/03/05 02:49:46;;;;;;;11.23;7.80;;;;;;;;;;5026333;28;20462;-48
2021/03/05 02:52:16;;;;;;;11.33;8.13;;;;;;;;;;5044326;28;20194;-55
2021/03/05 02:54:43;;;;;;;12.70;8.17;;;;;;;;;;5042846;28;20278;-48
2021/03/05 02:57:11;;;;;;;15.77;8.33;;;;;;;;;;5048124;28;20182;-47
2021/03/05 02:59:37;;;;;;;10.37;7.67;;;;;;;;;;5043300;28;20206;-48
2021/03/05 03:02:03;;;;;;;11.40;8.27;;;;;;;;;;5048686;28;20193;-48
2021/03/05 03:04:29;;;;;;;13.07;8.63;;;;;;;;;;5049714;28;20190;-48
2021/03/05 03:06:56;;;;;;;12.07;8.33;;;;;;;;;;5054104;28;20190;-48
2021/03/05 03:09:22;;;;;;;11.87;8.73;;;;;;;;;;5047888;28;20786;-48
2021/03/05 03:11:48;;;;;;;12.20;8.87;;;;;;;;;;5053771;28;20547;-49
2021/03/05 03:14:15;;;;;;;11.67;7.93;;;;;;;;;;5049291;28;20276;-48
2021/03/05 03:16:42;;;;;;;12.23;7.67;;;;;;;;;;5052831;28;20610;-48
2021/03/05 03:19:12;;;;;;;13.13;8.57;;;;;;;;;;5047933;28;20577;-47
2021/03/05 03:21:37;;;;;;;13.00;8.03;;;;;;;;;;5044662;28;20210;-47
2021/03/05 03:24:04;;;;;;;12.00;7.53;;;;;;;;;;5048044;28;20324;-50
2021/03/05 03:26:31;;;;;;;12.97;8.00;;;;;;;;;;5047407;28;20814;-49
2021/03/05 03:28:56;;;;;;;12.53;7.53;;;;;;;;;;5027588;28;20201;-49
2021/03/05 03:31:21;;;;;;;11.37;7.63;;;;;;;;;;5025224;28;20217;-48
2021/03/05 03:33:47;;;;;;;11.37;7.93;;;;;;;;;;5044849;28;20213;-50
2021/03/05 03:36:14;;;;;;;13.93;7.70;;;;;;;;;;5049170;28;20190;-51
2021/03/05 03:38:40;;;;;;;13.00;8.10;;;;;;;;;;5045607;28;20186;-50
2021/03/05 03:41:05;;;;;;;10.07;6.93;;;;;;;;;;5021829;28;20210;-49
2021/03/05 03:43:31;;;;;;;13.20;6.97;;;;;;;;;;5041464;28;20192;-50
2021/03/05 03:45:59;;;;;;;12.47;7.70;;;;;;;;;;5046042;28;20192;-48
2021/03/05 03:48:26;;;;;;;11.90;7.53;;;;;;;;;;5045732;28;20248;-48
2021/03/05 03:51:01;;;;;;;10.33;6.97;;;;;;;;;;5042087;28;20207;-48
2021/03/05 03:53:29;;;;;;;10.00;6.63;;;;;;;;;;5044424;28;20201;-48
2021/03/05 03:55:55;;;;;;;9.60;6.70;;;;;;;;;;5039925;28;20635;-50
2021/03/05 03:58:22;;;;;;;11.23;6.93;;;;;;;;;;5048094;28;20323;-49
2021/03/05 04:00:51;;;;;;;10.83;6.67;;;;;;;;;;5024872;28;20198;-48
2021/03/05 04:03:18;;;;;;;8.30;5.93;;;;;;;;;;5041628;28;20205;-48
2021/03/05 04:05:45;;;;;;;11.67;6.70;;;;;;;;;;5016339;28;20190;-49
2021/03/05 04:08:16;;;;;;;9.37;5.97;;;;;;;;;;5048636;28;20200;-48
2021/03/05 04:10:42;;;;;;;7.77;5.37;;;;;;;;;;5005211;28;20219;-49
2021/03/05 04:13:09;;;;;;;9.23;6.10;;;;;;;;;;5044976;28;20208;-49
2021/03/05 04:15:36;;;;;;;10.53;7.23;;;;;;;;;;5040183;28;20281;-47
2021/03/05 04:18:02;;;;;;;10.57;6.80;;;;;;;;;;5046301;28;20178;-49
2021/03/05 04:20:29;;;;;;;12.97;7.17;;;;;;;;;;5044108;28;20568;-48
2021/03/05 04:22:55;;;;;;;12.33;7.03;;;;;;;;;;5042701;28;20186;-48
2021/03/05 04:25:20;;;;;;;14.30;6.57;;;;;;;;;;5038465;28;20201;-51
2021/03/05 04:27:48;;;;;;;9.83;6.63;;;;;;;;;;5028207;28;20185;-50
2021/03/05 04:30:14;;;;;;;11.77;7.23;;;;;;;;;;5043490;28;20639;-47
2021/03/05 04:32:41;;;;;;;10.80;7.00;;;;;;;;;;5042175;28;20239;-49
2021/03/05 04:35:08;;;;;;;14.23;7.87;;;;;;;;;;5043442;28;20190;-49
2021/03/05 04:37:33;;;;;;;14.03;7.73;;;;;;;;;;5040060;28;20190;-50
2021/03/05 04:39:59;;;;;;;10.23;7.37;;;;;;;;;;5045212;28;20965;-48
2021/03/05 04:42:24;;;;;;;7.80;6.07;;;;;;;;;;5027602;28;20190;-47
2021/03/05 04:44:49;;;;;;;9.10;5.83;;;;;;;;;;5041651;28;20429;-48
2021/03/05 04:47:14;;;;;;;9.77;5.27;;;;;;;;;;5039999;28;20187;-48
2021/03/05 04:49:42;;;;;;;8.67;5.03;;;;;;;;;;5044291;28;20213;-50
2021/03/05 04:52:07;;;;;;;9.43;5.53;;;;;;;;;;5026803;28;20646;-48
2021/03/05 04:54:33;;;;;;;13.07;5.17;;;;;;;;;;5026052;28;20251;-50
2021/03/05 04:56:59;;;;;;;9.00;5.33;;;;;;;;;;5042347;28;20626;-49
2021/03/05 04:59:24;;;;;;;12.33;5.30;;;;;;;;;;5041042;28;20264;-46
2021/03/05 05:01:52;;;;;;;10.40;5.07;;;;;;;;;;5043287;28;20706;-48
2021/03/05 05:04:17;;;;;;;9.00;3.80;;;;;;;;;;5042054;28;20194;-49
2021/03/05 05:06:42;;;;;;;7.47;3.70;;;;;;;;;;5047777;28;20285;-47
2021/03/05 05:09:07;;;;;;;7.53;3.20;;;;;;;;;;5042174;28;20210;-49
2021/03/05 05:11:33;;;;;;;6.43;3.40;;;;;;;;;;5042533;28;20205;-49
2021/03/05 05:13:58;;;;;;;9.47;3.90;;;;;;;;;;5045974;28;20236;-48
2021/03/05 05:16:27;;;;;;;10.20;3.70;;;;;;;;;;5047686;28;20178;-50
2021/03/05 05:18:53;;;;;;;6.60;3.57;;;;;;;;;;5044753;28;20218;-49
2021/03/05 05:21:18;;;;;;;6.97;3.40;;;;;;;;;;5044514;28;20209;-49
2021/03/05 05:23:43;;;;;;;7.03;2.83;;;;;;;;;;5037741;28;20685;-48
2021/03/05 05:26:08;;;;;;;5.60;2.87;;;;;;;;;;5048309;28;20232;-47
2021/03/05 05:28:34;;;;;;;7.43;2.93;;;;;;;;;;5053357;28;20209;-49
2021/03/05 05:30:59;;;;;;;8.60;2.60;;;;;;;;;;5052730;28;20256;-47
2021/03/05 05:33:24;;;;;;;5.70;2.70;;;;;;;;;;5050895;28;20189;-48
2021/03/05 05:35:49;;;;;;;4.37;2.43;;;;;;;;;;5052484;28;20181;-48
2021/03/05 05:38:15;;;;;;;6.10;2.70;;;;;;;;;;5048148;28;20178;-48
2021/03/05 05:40:40;;;;;;;6.40;2.60;;;;;;;;;;5043945;28;20213;-49
2021/03/05 05:43:06;;;;;;;6.53;2.80;;;;;;;;;;5043779;28;20194;-48
2021/03/05 05:45:31;;;;;;;7.47;2.70;;;;;;;;;;5049473;28;20178;-50
2021/03/05 05:47:59;;;;;;;8.67;2.80;;;;;;;;;;5047889;28;20198;-48
2021/03/05 05:50:26;;;;;;;5.07;2.50;;;;;;;;;;5044253;28;20210;-50
2021/03/05 05:52:55;;;;;;;6.40;3.13;;;;;;;;;;5041989;28;20239;-48
2021/03/05 05:55:21;;;;;;;6.40;2.50;;;;;;;;;;5031258;28;20178;-48
2021/03/05 05:57:46;;;;;;;6.57;2.50;;;;;;;;;;5039118;28;20355;-49
2021/03/05 06:00:12;;;;;;;9.27;2.60;;;;;;;;;;5021766;28;20852;-46
2021/03/05 06:02:42;;;;;;;7.00;2.40;;;;;;;;;;5055038;28;20243;-48
2021/03/05 06:05:08;;;;;;;7.77;2.80;;;;;;;;;;5025125;28;20198;-48
2021/03/05 06:07:35;;;;;;;10.07;2.60;;;;;;;;;;5048192;28;20190;-47
2021/03/05 06:10:00;;;;;;;5.70;2.63;;;;;;;;;;5030856;28;20791;-49
2021/03/05 06:12:25;;;;;;;6.03;2.53;;;;;;;;;;5050163;28;20276;-48
2021/03/05 06:14:51;;;;;;;6.83;2.70;;;;;;;;;;5047180;28;20194;-47
2021/03/05 06:17:16;;;;;;;4.53;2.30;;;;;;;;;;5047061;28;20285;-49
2021/03/05 06:19:41;;;;;;;7.07;2.90;;;;;;;;;;5042095;28;20310;-50
2021/03/05 06:22:21;;;;;;;7.03;1.97;;;;;;;;;;5044654;28;20197;-49
2021/03/05 06:24:47;;;;;;;7.80;2.03;;;;;;;;;;5044841;28;20190;-49
2021/03/05 06:27:13;;;;;;;3.33;1.63;;;;;;;;;;5050191;28;20190;-48
2021/03/05 06:29:43;;;;;;;3.73;2.03;;;;;;;;;;5043715;28;20214;-48
2021/03/05 06:32:10;;;;;;;5.20;2.17;;;;;;;;;;5046669;28;20190;-48
2021/03/05 06:34:50;;;;;;;5.97;1.90;;;;;;;;;;5042045;28;20248;-48
2021/03/05 06:37:17;;;;;;;5.27;2.10;;;;;;;;;;5040120;28;20273;-51
2021/03/05 06:39:43;;;;;;;3.77;1.63;;;;;;;;;;5040927;28;20237;-48
2021/03/05 06:42:11;;;;;;;5.00;2.03;;;;;;;;;;5040430;28;20650;-49
2021/03/05 06:44:43;;;;;;;3.37;2.00;;;;;;;;;;5045504;28;20194;-49
2021/03/05 06:47:11;;;;;;;3.67;2.10;;;;;;;;;;5040169;28;20422;-54
2021/03/05 06:49:37;;;;;;;6.20;2.00;;;;;;;;;;5048842;28;20213;-50
2021/03/05 06:52:02;;;;;;;5.40;2.60;;;;;;;;;;5044253;28;20205;-51
2021/03/05 06:54:30;;;;;;;3.33;2.07;;;;;;;;;;5045944;28;20190;-47
2021/03/05 06:56:55;;;;;;;2.27;1.70;;;;;;;;;;5043882;28;20202;-48
2021/03/05 06:59:23;;;;;;;3.77;1.60;;;;;;;;;;5043732;28;20649;-49
2021/03/05 07:01:53;;;;;;;3.10;2.00;;;;;;;;;;5043943;28;20193;-51
2021/03/05 07:04:23;;;;;;;5.33;2.10;;;;;;;;;;5038133;28;20201;-52
2021/03/05 07:07:00;;;;;;;5.73;2.10;;;;;;;;;;5045265;28;20200;-48
2021/03/05 07:09:38;;;;;;;3.40;1.90;;;;;;;;;;5046125;28;20234;-51
2021/03/05 07:12:21;;;;;;;5.80;1.80;;;;;;;;;;5043252;28;20661;-51
2021/03/05 07:14:49;;;;;;;2.27;1.77;;;;;;;;;;5041938;28;20205;-50
2021/03/05 07:17:18;;;;;;;4.67;2.03;;;;;;;;;;5029286;28;20213;-52
2021/03/05 07:19:43;;;;;;;4.50;2.13;;;;;;;;;;5041097;28;20321;-54
2021/03/05 07:22:09;;;;;;;5.40;2.43;;;;;;;;;;5032836;28;20665;-51
2021/03/05 07:24:40;;;;;;;4.10;2.00;;;;;;;;;;5043746;28;20267;-50
2021/03/05 07:27:07;;;;;;;3.13;1.90;;;;;;;;;;5027939;28;20272;-53
2021/03/05 07:29:38;;;;;;;5.33;2.10;;;;;;;;;;5035120;28;20217;-50
2021/03/05 07:32:24;;;;;;;4.07;2.13;;;;;;;;;;5032202;28;20661;-52
2021/03/05 07:34:58;;;;;;;4.43;2.23;;;;;;;;;;5045711;28;20190;-50
2021/03/05 07:37:31;;;;;;;6.10;2.43;;;;;;;;;;5028666;28;20270;-50
2021/03/05 07:40:04;;;;;;;5.20;2.27;;;;;;;;;;5049189;28;20682;-52
2021/03/05 07:42:30;;;;;;;2.97;2.25;;;;;;;;;;5040820;28;20186;-51
2021/03/05 07:44:57;;;;;;;3.63;2.60;;;;;;;;;;5042237;28;20192;-50
2021/03/05 07:47:25;;;;;;;6.80;2.80;;;;;;;;;;5025926;28;20190;-51
2021/03/05 07:49:51;;;;;;;6.25;2.30;;;;;;;;;;5040716;28;20657;-51
2021/03/05 07:52:19;;;;;;;7.35;3.03;;;;;;;;;;5042120;28;20187;-52
2021/03/05 07:54:48;;;;;;;6.95;2.60;;;;;;;;;;5043559;28;20691;-50
2021/03/05 07:57:13;;;;;;;5.03;2.58;;;;;;;;;;5044106;28;20523;-51
2021/03/05 07:59:41;;;;;;;5.35;2.75;;;;;;;;;;5042876;28;20236;-50
2021/03/05 08:02:07;;;;;;;7.00;2.97;;;;;;;;;;5041760;28;20241;-51
2021/03/05 08:04:48;;;;;;;4.88;2.40;;;;;;;;;;5030707;28;20178;-56
2021/03/05 08:07:14;;;;;;;4.55;2.60;;;;;;;;;;5041512;28;20217;-50
2021/03/05 08:09:39;;;;;;;3.85;2.60;;;;;;;;;;5029750;28;20215;-51
2021/03/05 08:12:37;;;;;;;4.88;2.22;;;;;;;;;;5041089;28;20587;-53
2021/03/05 08:15:05;;;;;;;5.47;2.55;;;;;;;;;;5040863;28;20332;-51
2021/03/05 08:17:31;;;;;;;5.22;3.00;;;;;;;;;;5049487;28;20566;-50
2021/03/05 08:19:57;;;;;;;7.07;3.17;;;;;;;;;;5044778;28;20257;-51
2021/03/05 08:22:22;;;;;;;5.22;2.58;;;;;;;;;;5039953;28;20186;-51
2021/03/05 08:24:48;;;;;;;8.57;3.10;;;;;;;;;;5041585;28;20187;-49
2021/03/05 08:27:35;;;;;;;3.70;2.60;;;;;;;;;;5045459;28;20261;-53
2021/03/05 08:30:08;;;;;;;6.20;2.60;;;;;;;;;;5044874;28;20717;-51
2021/03/05 08:32:33;;;;;;;5.68;2.78;;;;;;;;;;5040578;28;20245;-57
2021/03/05 08:35:11;;;;;;;5.72;2.83;;;;;;;;;;5043105;28;20654;-55
2021/03/05 08:37:39;;;;;;;5.43;3.13;;;;;;;;;;5039333;28;20603;-52
2021/03/05 08:40:10;;;;;;;5.80;2.75;;;;;;;;;;5046215;28;20276;-51
2021/03/05 08:42:40;;;;;;;6.80;3.10;;;;;;;;;;5042262;28;20201;-54
2021/03/05 08:45:11;;;;;;;6.90;3.13;;;;;;;;;;5041877;28;20178;-51
2021/03/05 08:47:39;;;;;;;6.78;3.33;;;;;;;;;;5041372;28;20186;-51
2021/03/05 08:50:05;;;;;;;6.78;2.85;;;;;;;;;;5042153;28;20213;-51
2021/03/05 08:52:33;;;;;;;7.47;3.10;;;;;;;;;;5049603;28;20192;-50
2021/03/05 08:55:02;;;;;;;4.65;2.95;;;;;;;;;;5044301;28;20231;-52
2021/03/05 08:57:37;;;;;;;6.80;3.22;;;;;;;;;;5041970;28;20237;-52
2021/03/05 09:00:03;;;;;;;4.18;2.97;;;;;;;;;;5046632;28;20212;-52
2021/03/05 09:02:29;;;;;;;5.05;3.10;;;;;;;;;;5045522;28;20198;-53
2021/03/05 09:04:54;;;;;;;4.65;3.22;;;;;;;;;;5042378;28;20238;-54
2021/03/05 09:07:19;;;;;;;6.82;3.03;;;;;;;;;;5045648;28;20190;-51
2021/03/05 09:09:50;;;;;;;5.47;2.90;;;;;;;;;;5046571;28;20213;-51
2021/03/05 09:12:17;;;;;;;6.63;2.87;;;;;;;;;;5034627;28;20186;-49
2021/03/05 09:14:44;;;;;;;6.77;3.60;;;;;;;;;;5044376;28;20194;-61
2021/03/05 09:17:11;;;;;;;5.40;3.10;;;;;;;;;;5030226;28;20662;-52
2021/03/05 09:19:43;;;;;;;5.87;3.10;;;;;;;;;;5041387;28;20206;-50
2021/03/05 09:22:23;;;;;;;8.17;2.97;;;;;;;;;;5048357;28;20252;-50
2021/03/05 09:25:06;;;;;;;4.67;2.97;;;;;;;;;;5047154;28;20622;-50
2021/03/05 09:27:42;;;;;;;5.37;3.20;;;;;;;;;;5045734;28;20197;-50
2021/03/05 09:30:20;;;;;;;7.83;3.37;;;;;;;;;;5039180;28;20296;-49
2021/03/05 09:32:49;;;;;;;6.47;3.00;;;;;;;;;;5046649;28;20679;-49
2021/03/05 09:35:20;;;;;;;5.83;3.20;;;;;;;;;;5044894;28;20189;-49
2021/03/05 09:37:46;;;;;;;4.47;2.80;;;;;;;;;;5044737;28;20300;-52
2021/03/05 09:40:11;;;;;;;7.70;2.87;;;;;;;;;;5028948;28;20289;-53
2021/03/05 09:42:54;;;;;;;7.17;3.20;;;;;;;;;;5044825;28;20194;-51
2021/03/05 09:45:35;;;;;;;6.37;3.17;;;;;;;;;;5045024;28;20178;-50
2021/03/05 09:48:04;;;;;;;8.33;3.20;;;;;;;;;;5047917;28;20182;-48
2021/03/05 09:50:29;;;;;;;10.23;3.00;;;;;;;;;;5039417;28;20686;-52
2021/03/05 09:52:55;;;;;;;6.73;2.60;;;;;;;;;;5022720;28;20189;-52
2021/03/05 09:55:30;;;;;;;8.57;3.30;;;;;;;;;;5042113;28;20187;-54
2021/03/05 09:58:12;;;;;;;5.80;2.95;;;;;;;;;;5031612;28;20243;-53
2021/03/05 10:00:38;;;;;;;6.68;3.20;;;;;;;;;;5027075;28;20310;-51
2021/03/05 10:03:11;;;;;;;6.82;3.10;;;;;;;;;;5042506;28;20560;-52
2021/03/05 10:05:39;;;;;;;7.07;3.25;;;;;;;;;;5040068;28;20665;-59
2021/03/05 10:08:21;;;;;;;7.53;3.10;;;;;;;;;;5043624;28;20202;-56
2021/03/05 10:11:14;;;;;;;5.93;3.25;;;;;;;;;;5034561;28;20256;-53
2021/03/05 10:13:43;;;;;;;5.40;2.85;;;;;;;;;;5039494;28;20194;-52
2021/03/05 10:16:26;;;;;;;4.13;2.78;;;;;;;;;;5033819;28;20693;-54
2021/03/05 10:19:00;;;;;;;7.13;3.15;;;;;;;;;;5044422;28;20193;-50
2021/03/05 10:21:25;;;;;;;9.93;3.55;;;;;;;;;;5038955;28;20206;-52
2021/03/05 10:23:51;;;;;;;7.18;3.22;;;;;;;;;;5043177;28;20214;-54
2021/03/05 10:26:27;;;;;;;7.00;3.33;;;;;;;;;;5035599;28;20190;-50
2021/03/05 10:29:00;;;;;;;6.30;3.13;;;;;;;;;;5042293;28;20220;-51
2021/03/05 10:31:51;;;;;;;7.90;3.33;;;;;;;;;;5038625;28;20209;-53
2021/03/05 10:34:28;;;;;;;7.32;3.22;;;;;;;;;;5043644;28;20185;-54
2021/03/05 10:36:56;;;;;;;4.55;2.90;;;;;;;;;;5038022;28;20522;-54
2021/03/05 10:39:22;;;;;;;5.72;3.25;;;;;;;;;;5044504;28;20224;-53
2021/03/05 10:41:49;;;;;;;4.80;2.60;;;;;;;;;;5039830;28;20249;-51
2021/03/05 10:44:15;;;;;;;4.47;2.70;;;;;;;;;;5041162;28;20658;-53
2021/03/05 10:46:40;;;;;;;5.43;2.97;;;;;;;;;;5037043;28;20212;-52
2021/03/05 10:49:05;;;;;;;5.70;2.70;;;;;;;;;;5031003;28;20214;-53
2021/03/05 10:51:30;;;;;;;10.18;3.10;;;;;;;;;;5023901;28;20218;-55
2021/03/05 10:53:56;;;;;;;4.28;2.63;;;;;;;;;;5040074;28;20190;-52
2021/03/05 10:56:22;;;;;;;4.97;2.65;;;;;;;;;;5040525;28;20222;-51
2021/03/05 10:58:48;;;;;;;9.23;3.50;;;;;;;;;;5042628;28;20240;-53
2021/03/05 11:01:13;;;;;;;6.22;2.85;;;;;;;;;;5024695;28;20205;-51
2021/03/05 11:03:38;;;;;;;4.45;2.88;;;;;;;;;;5040302;28;20239;-55
2021/03/05 11:06:04;;;;;;;7.20;2.80;;;;;;;;;;5040955;28;20201;-50
2021/03/05 11:08:29;;;;;;;7.75;2.80;;;;;;;;;;5043374;28;20231;-51
2021/03/05 11:10:54;;;;;;;4.60;2.78;;;;;;;;;;5038747;28;20204;-57
2021/03/05 11:13:19;;;;;;;6.65;2.33;;;;;;;;;;5040183;28;20550;-54
2021/03/05 11:15:45;;;;;;;6.30;2.30;;;;;;;;;;5034027;28;20206;-52
2021/03/05 11:18:10;;;;;;;3.30;2.15;;;;;;;;;;5037696;28;20182;-53
2021/03/05 11:20:35;;;;;;;4.80;2.50;;;;;;;;;;5039313;28;20201;-50
2021/03/05 11:23:00;;;;;;;6.70;2.33;;;;;;;;;;5039609;28;20554;-55
2021/03/05 11:25:26;;;;;;;4.80;1.60;;;;;;;;;;5041080;28;20194;-51
2021/03/05 11:27:51;;;;;;;3.70;1.80;;;;;;;;;;5026863;28;20571;-51
2021/03/05 11:30:17;;;;;;;3.47;1.70;;;;;;;;;;5037183;28;20214;-54
2021/03/05 11:32:42;;;;;;;5.07;2.00;;;;;;;;;;5034082;28;20399;-55
2021/03/05 11:35:08;;;;;;;3.75;1.90;;;;;;;;;;5034121;28;20297;-52
2021/03/05 11:37:33;;;;;;;4.47;2.40;;;;;;;;;;5034380;28;20202;-52
2021/03/05 11:39:59;;;;;;;3.83;1.90;;;;;;;;;;5040965;28;20208;-53
2021/03/05 11:42:27;;;;;;;3.90;1.75;;;;;;;;;;5041668;28;20765;-56
2021/03/05 11:44:52;;;;;;;2.70;2.00;;;;;;;;;;5030837;28;20205;-51
2021/03/05 11:47:18;;;;;;;6.70;2.10;;;;;;;;;;5040387;28;20186;-53
2021/03/05 11:49:43;;;;;;;3.08;1.50;;;;;;;;;;5041014;28;20214;-57
2021/03/05 11:52:09;;;;;;;5.38;1.58;;;;;;;;;;5041226;28;20205;-51
2021/03/05 11:54:34;;;;;;;3.83;1.55;;;;;;;;;;5041324;28;20277;-52
2021/03/05 11:57:00;;;;;;;3.20;1.50;;;;;;;;;;5045976;28;20190;-55
2021/03/05 11:59:25;;;;;;;3.33;1.73;;;;;;;;;;5040193;28;20213;-52
2021/03/05 12:01:50;;;;;;;3.33;1.80;;;;;;;;;;5027520;28;20567;-54
2021/03/05 12:04:15;;;;;;;4.10;1.90;;;;;;;;;;5041923;28;20322;-51
2021/03/05 12:06:40;;;;;;;2.95;1.52;;;;;;;;;;5040012;28;20248;-52
2021/03/05 12:09:06;;;;;;;3.33;1.40;;;;;;;;;;5024825;28;20216;-54
2021/03/05 12:11:31;;;;;;;6.47;1.45;;;;;;;;;;5040333;28;20638;-52
2021/03/05 12:13:57;;;;;;;3.03;1.20;;;;;;;;;;5038904;28;20198;-51
2021/03/05 12:16:22;;;;;;;2.20;1.35;;;;;;;;;;5028592;28;20577;-52
2021/03/05 12:18:47;;;;;;;2.70;1.58;;;;;;;;;;5036156;28;20205;-52
2021/03/05 12:21:13;;;;;;;4.22;1.90;;;;;;;;;;5041184;28;20557;-54
2021/03/05 12:23:38;;;;;;;2.80;1.63;;;;;;;;;;5039603;28;20186;-52
2021/03/05 12:26:03;;;;;;;2.38;1.77;;;;;;;;;;5041759;28;20517;-51
2021/03/05 12:28:29;;;;;;;2.75;1.63;;;;;;;;;;5025046;28;20323;-51
2021/03/05 12:30:54;;;;;;;3.85;1.48;;;;;;;;;;5029299;28;20256;-52
2021/03/05 12:33:19;;;;;;;3.78;1.50;;;;;;;;;;5037960;28;20218;-54
2021/03/05 12:35:44;;;;;;;5.47;1.52;;;;;;;;;;5043285;28;20228;-54
2021/03/05 12:38:10;;;;;;;2.75;1.50;;;;;;;;;;5036565;28;20206;-51
2021/03/05 12:40:35;;;;;;;3.75;1.75;;;;;;;;;;5026691;28;20214;-56
2021/03/05 12:43:01;;;;;;;10.60;2.33;;;;;;;;;;5029314;28;20344;-51
2021/03/05 12:45:26;;;;;;;3.47;1.92;;;;;;;;;;5042074;28;20208;-51
2021/03/05 12:47:51;;;;;;;3.88;1.63;;;;;;;;;;5021559;28;20670;-54
2021/03/05 12:50:17;;;;;;;3.33;1.38;;;;;;;;;;5038844;28;20218;-52
2021/03/05 12:52:42;;;;;;;2.47;1.42;;;;;;;;;;5026648;28;20599;-57
2021/03/05 12:55:08;;;;;;;3.45;1.48;;;;;;;;;;5040580;28;20197;-50
2021/03/05 12:57:33;;;;;;;2.83;1.50;;;;;;;;;;5037694;28;20195;-54
2021/03/05 12:59:58;;;;;;;1.75;1.30;;;;;;;;;;5041020;28;21171;-59
2021/03/05 13:02:24;;;;;;;1.83;1.10;;;;;;;;;;5037089;28;20285;-53
2021/03/05 13:04:51;;;;;;;2.13;1.13;;;;;;;;;;5040434;28;20190;-52
2021/03/05 13:07:17;;;;;;;1.77;1.38;;;;;;;;;;5040226;28;20208;-52
2021/03/05 13:09:42;;;;;;;1.83;1.10;;;;;;;;;;5029276;28;20218;-54
2021/03/05 13:12:08;;;;;;;2.10;1.27;;;;;;;;;;5034962;28;20202;-53
2021/03/05 13:14:34;;;;;;;1.98;1.27;;;;;;;;;;5040877;28;20190;-58
2021/03/05 13:16:59;;;;;;;2.22;1.40;;;;;;;;;;5038103;28;20198;-50
2021/03/05 13:19:25;;;;;;;3.05;1.30;;;;;;;;;;5021394;28;20193;-55
2021/03/05 13:21:50;;;;;;;2.38;1.10;;;;;;;;;;5038410;28;20210;-55
2021/03/05 13:24:15;;;;;;;2.33;1.17;;;;;;;;;;5039008;28;20197;-51
2021/03/05 13:26:43;;;;;;;1.30;1.10;;;;;;;;;;5036487;28;20585;-52
2021/03/05 13:29:08;;;;;;;1.75;1.20;;;;;;;;;;5039614;28;20201;-53
2021/03/05 13:31:33;;;;;;;2.38;1.10;;;;;;;;;;5040292;28;20223;-50
2021/03/05 13:33:59;;;;;;;2.55;1.05;;;;;;;;;;5042431;28;20248;-52
2021/03/05 13:36:24;;;;;;;1.73;1.20;;;;;;;;;;5039828;28;20255;-51
2021/03/05 13:38:49;;;;;;;10.85;1.60;;;;;;;;;;5042195;28;20190;-56
2021/03/05 13:41:14;;;;;;;1.38;1.15;;;;;;;;;;5039074;28;20218;-55
2021/03/05 13:43:40;;;;;;;2.38;1.30;;;;;;;;;;5045155;28;20205;-50
2021/03/05 13:46:05;;;;;;;2.38;1.17;;;;;;;;;;5036038;28;20292;-51
2021/03/05 13:48:33;;;;;;;1.95;1.05;;;;;;;;;;5030703;28;20213;-53
2021/03/05 13:50:59;;;;;;;3.05;1.38;;;;;;;;;;5041138;28;20209;-49
2021/03/05 13:53:24;;;;;;;1.65;1.05;;;;;;;;;;5038155;28;20582;-51
2021/03/05 13:55:50;;;;;;;3.05;1.45;;;;;;;;;;5042221;28;20319;-51
2021/03/05 13:58:15;;;;;;;2.65;0.90;;;;;;;;;;5043181;28;20218;-56
2021/03/05 14:00:40;;;;;;;2.05;1.15;;;;;;;;;;5042972;28;20206;-50
2021/03/05 14:03:06;;;;;;;2.33;1.20;;;;;;;;;;5044551;28;20205;-55
2021/03/05 14:05:31;;;;;;;2.25;1.25;;;;;;;;;;5028820;28;20198;-52
2021/03/05 14:07:57;;;;;;;1.63;1.10;;;;;;;;;;5041625;28;20456;-50
2021/03/05 14:10:23;;;;;;;4.10;1.00;;;;;;;;;;5040091;28;20227;-55
2021/03/05 14:12:48;;;;;;;1.50;1.27;;;;;;;;;;5044430;28;20193;-49
2021/03/05 14:15:14;;;;;;;1.88;1.10;;;;;;;;;;5026623;28;20194;-51
2021/03/05 14:17:39;;;;;;;2.67;1.30;;;;;;;;;;5039455;28;20194;-52
2021/03/05 14:20:06;;;;;;;1.83;1.10;;;;;;;;;;5038108;28;20228;-51
2021/03/05 14:22:32;;;;;;;1.98;1.15;;;;;;;;;;5043280;28;20623;-54
2021/03/05 14:24:57;;;;;;;4.43;1.27;;;;;;;;;;5041903;28;20185;-57
2021/03/05 14:27:23;;;;;;;2.22;1.23;;;;;;;;;;5044233;28;20581;-52
2021/03/05 14:29:48;;;;;;;2.88;1.25;;;;;;;;;;5042504;28;20233;-54
2021/03/05 14:32:13;;;;;;;2.28;1.05;;;;;;;;;;5049530;28;20232;-52
2021/03/05 14:34:38;;;;;;;2.75;1.10;;;;;;;;;;5040860;28;20219;-56
2021/03/05 14:37:04;;;;;;;1.73;0.90;;;;;;;;;;5041858;28;20226;-51
2021/03/05 14:39:29;;;;;;;1.10;1.00;;;;;;;;;;5018984;28;20713;-51
2021/03/05 14:41:54;;;;;;;1.73;1.15;;;;;;;;;;5044954;28;20228;-57